• Join FlightAware (Why Join?)
  • Login
  • US Flag 
04:45PM EDT


 

Airport Tracker/Info


-or-


 

Live Flight TrackerFlight Track Log ✈ AMX466 ✈ 03-Sep-2013 ✈ MMGL / GDL - KLAX

Flight Track Log - Related Links

Times and Time Zones

All times are in EDT time to prevent confusion due to time zone crossing. See the AMX466 flight status page for this flight to view local times or setup timezone preferences in your user account.

Time Position Orientation Groundspeed Altitude Reporting Facility
EDT Latitude Longitude Course Direction KTS MPH feet Rate Location/Type
11:29PM 20.5260 -103.3210 180° South 105 121  Level FlightAware
11:30PM 20.5220 -103.3110 113° Southeast 160 184 9,060 Level FlightAware
11:30PM 20.5150 -103.2940 114° Southeast 173 199 5,600 9,120 Climbing FlightAware
11:30PM 20.5090 -103.2780 112° Southeast 183 211 6,400 2,040 Climbing FlightAware
11:31PM 20.5050 -103.2670 111° Southeast 200 230 6,700 1,500 Climbing FlightAware
11:31PM 20.5020 -103.2580 110° East 208 239 6,900 2,220 Climbing FlightAware
11:31PM 20.5130 -103.2330 65° Northeast 221 254 8,100 2,520 Climbing FlightAware
11:31PM 20.5170 -103.2300 35° Northeast 223 257 8,300 2,760 Climbing FlightAware
11:31PM 20.5270 -103.2270 16° North 234 269 8,700 2,280 Climbing FlightAware
11:32PM 20.5310 -103.2270 360° North 238 274 8,800 1,500 Climbing FlightAware
11:32PM 20.5560 -103.2370 339° North 271 312 9,400 2,100 Climbing FlightAware
11:32PM 20.5620 -103.2460 305° West 267 307 9,900 2,280 Climbing FlightAware
11:33PM 20.5870 -103.2890 302° West 299 344 11,100 2,280 Climbing FlightAware
11:33PM 20.6100 -103.3310 300° West 312 359 12,500 2,340 Climbing FlightAware
11:34PM 20.6370 -103.3810 300° West 333 383 13,800 2,280 Climbing FlightAware
11:34PM 20.6470 -103.4050 294° West 341 392 14,500 2,700 Climbing FlightAware
11:35PM 20.6550 -103.4590 279° West 344 396 16,000 2,640 Climbing FlightAware
11:35PM 20.6620 -103.5210 277° West 352 405 17,500 2,460 Climbing FlightAware
11:36PM 20.6660 -103.5870 274° West 354 407 19,100 2,220 Climbing FlightAware
11:36PM 20.6690 -103.6430 273° West 360 414 20,100 1,320 Climbing FlightAware
11:37PM 20.6730 -103.7090 274° West 382 440 20,600 1,440 Climbing FlightAware
11:38PM 20.6800 -103.7780 276° West 392 451 21,900 1,980 Climbing FlightAware
11:38PM 20.6930 -103.8380 283° West 396 456 22,900 1,860 Climbing FlightAware
11:39PM 20.7140 -103.9060 288° West 403 464 24,000 1,200 Climbing FlightAware
11:39PM 20.7450 -103.9860 293° West 408 470 24,600 420 Climbing FlightAware
11:40PM 20.7670 -104.0430 292° West 408 470 24,600  Level FlightAware
11:41PM 20.7890 -104.1020 292° West 408 470 24,600  Level FlightAware
11:41PM 20.8110 -104.1590 292° West 408 470 24,600  Level FlightAware
11:42PM 20.8320 -104.2160 292° West 408 470 24,600  Level FlightAware
11:42PM 20.8540 -104.2740 292° West 408 470 24,600 480 Level FlightAware
11:45PM 21.2684 -104.6571 319° Northwest  Level Estimated
11:46PM 21.4736 -104.8479 319° Northwest  Level Estimated
11:47PM 21.6786 -105.0392 319° Northwest  Level Estimated
11:48PM 21.8833 -105.2310 319° Northwest  Level Estimated
11:49PM 22.0878 -105.4234 319° Northwest  Level Estimated
11:50PM 22.2921 -105.6164 319° Northwest  Level Estimated
11:51PM 22.4962 -105.8099 319° Northwest  Level Estimated
11:52PM 22.7000 -106.0040 319° Northwest  Level Estimated
11:53PM 22.9036 -106.1987 319° Northwest  Level Estimated
11:54PM 23.1070 -106.3940 319° Northwest  Level Estimated
11:55PM 23.3101 -106.5898 318° Northwest  Level Estimated
11:56PM 23.5130 -106.7862 318° Northwest  Level Estimated
11:57PM 23.7156 -106.9833 318° Northwest  Level Estimated
11:58PM 23.9180 -107.1810 318° Northwest  Level Estimated
11:59PM 24.1201 -107.3793 318° Northwest  Level Estimated
12:00AM 24.3219 -107.5782 318° Northwest  Level Estimated
12:01AM 24.5235 -107.7777 318° Northwest  Level Estimated
12:02AM 24.7249 -107.9779 318° Northwest  Level Estimated
12:03AM 24.9259 -108.1788 318° Northwest  Level Estimated
12:04AM 25.1268 -108.3803 318° Northwest  Level Estimated
12:05AM 25.3273 -108.5824 318° Northwest  Level Estimated
12:06AM 25.5275 -108.7853 318° Northwest  Level Estimated
12:07AM 25.7275 -108.9888 318° Northwest  Level Estimated
12:07AM 22.2240 -107.0690 318° Northwest 447 514 38,000  Level FlightAware
12:07AM 22.2670 -107.1420 302° West 446 513 38,000  Level FlightAware
12:08AM 22.3160 -107.2270 302° West 444 511 38,000  Level FlightAware
12:09AM 22.3520 -107.2870 303° West 442 509 38,000  Level FlightAware
12:09AM 22.3910 -107.3550 302° West 442 509 38,000  Level FlightAware
12:10AM 22.4350 -107.4310 302° West 442 509 38,000  Level FlightAware
12:10AM 22.4700 -107.4900 303° West 442 509 38,000  Level FlightAware
12:11AM 22.5160 -107.5710 302° West 446 513 38,000  Level FlightAware
12:12AM 22.5500 -107.6290 302° West 447 514 38,000  Level FlightAware
12:12AM 22.5990 -107.7140 302° West 451 519 38,000  Level FlightAware
12:13AM 22.6320 -107.7720 302° West 453 521 38,000  Level FlightAware
12:14AM 22.6700 -107.8380 302° West 454 522 38,000  Level FlightAware
12:14AM 22.7110 -107.9100 302° West 454 522 38,000  Level FlightAware
12:15AM 22.7440 -107.9700 301° West 454 522 38,000  Level FlightAware
12:15AM 22.8010 -108.0650 303° West 446 513 38,000  Level FlightAware
12:16AM 22.8390 -108.1330 301° West 444 511 38,000  Level FlightAware
12:17AM 22.8740 -108.1930 302° West 445 512 38,000  Level FlightAware
12:17AM 22.9130 -108.2610 302° West 444 511 38,000  Level FlightAware
12:18AM 22.9520 -108.3300 302° West 444 511 38,000  Level FlightAware
12:18AM 22.9870 -108.3910 302° West 444 511 38,000  Level FlightAware
12:19AM 23.0210 -108.4510 302° West 444 511 38,000  Level FlightAware
12:20AM 23.0730 -108.5430 302° West 444 511 38,000  Level FlightAware
12:20AM 23.1100 -108.6070 302° West 445 512 38,000  Level FlightAware
12:21AM 23.1460 -108.6710 301° West 443 510 38,000  Level FlightAware
12:21AM 23.1870 -108.7440 301° West 442 509 38,000  Level FlightAware
12:22AM 23.2250 -108.8110 302° West 442 509 38,000  Level FlightAware
12:23AM 23.2590 -108.8720 301° West 445 512 38,000  Level FlightAware
12:23AM 23.2990 -108.9420 302° West 449 517 38,000  Level FlightAware
12:24AM 23.3380 -109.0110 302° West 452 520 38,000  Level FlightAware
12:24AM 23.3810 -109.0880 301° West 453 521 38,000  Level FlightAware
12:25AM 23.4230 -109.1630 301° West 454 522 38,000  Level FlightAware
12:26AM 23.4580 -109.2260 301° West 454 522 38,000  Level FlightAware
12:26AM 23.4980 -109.2970 302° West 456 525 38,000  Level FlightAware
12:27AM 23.5300 -109.3550 301° West 457 526 38,000  Level FlightAware
12:27AM 23.5710 -109.4280 302° West 456 525 38,000  Level FlightAware
12:28AM 23.6120 -109.5010 302° West 455 524 38,000  Level FlightAware
12:29AM 23.6490 -109.5670 301° West 454 522 38,000  Level FlightAware
12:29AM 23.6910 -109.6420 301° West 453 521 38,000  Level FlightAware
12:30AM 23.7250 -109.7040 301° West 453 521 38,000  Level FlightAware
12:30AM 23.7640 -109.7740 301° West 450 518 38,000  Level FlightAware
12:31AM 23.8020 -109.8440 301° West 450 518 38,000  Level FlightAware
12:31AM 23.8410 -109.9130 302° West 448 516 38,000  Level FlightAware
12:32AM 23.8750 -109.9760 301° West 447 514 38,000  Level FlightAware
12:33AM 23.9160 -110.0490 302° West 447 514 38,000  Level FlightAware
12:33AM 23.9500 -110.1130 300° West 448 516 38,000  Level FlightAware
12:34AM 23.9880 -110.1810 301° West 447 514 38,000  Level FlightAware
12:35AM 24.0390 -110.2730 301° West 447 514 38,000  Level FlightAware
12:35AM 24.0800 -110.3410 303° West 446 513 38,000  Level FlightAware
12:36AM 24.1400 -110.3870 325° Northwest 434 499 38,000  Level FlightAware
12:36AM 24.1970 -110.4170 334° Northwest 434 499 38,000  Level FlightAware
12:37AM 24.2570 -110.4470 335° Northwest 435 501 38,000  Level FlightAware
12:38AM 24.3330 -110.4860 335° Northwest 437 503 38,000  Level FlightAware
12:38AM 24.3940 -110.5170 335° Northwest 437 503 38,000  Level FlightAware
12:39AM 24.4530 -110.5480 334° Northwest 438 504 38,000  Level FlightAware
12:39AM 24.5130 -110.5790 335° Northwest 439 505 38,000  Level FlightAware
12:40AM 24.5850 -110.6180 334° Northwest 439 505 38,000  Level FlightAware
12:41AM 24.6690 -110.6600 336° Northwest 439 505 38,000  Level FlightAware
12:41AM 24.7570 -110.7070 334° Northwest 439 505 38,000  Level FlightAware
12:42AM 24.8130 -110.7370 334° Northwest 439 505 38,000  Level FlightAware
12:43AM 24.8700 -110.7680 334° Northwest 439 505 38,000  Level FlightAware
12:43AM 24.9260 -110.7980 334° Northwest 439 505 38,000  Level FlightAware
12:44AM 25.0310 -110.8490 336° Northwest 443 510 38,000  Level FlightAware
12:45AM 25.1240 -110.8980 334° Northwest 444 511 38,000  Level FlightAware
12:46AM 25.2250 -110.9510 335° Northwest 447 514 38,000  Level FlightAware
12:46AM 25.2820 -110.9820 334° Northwest 447 514 38,000  Level FlightAware
12:47AM 25.3390 -111.0120 335° Northwest 447 514 38,000  Level FlightAware
12:47AM 25.3960 -111.0430 334° Northwest 447 514 38,000  Level FlightAware
12:48AM 25.4530 -111.0740 334° Northwest 447 514 38,000  Level FlightAware
12:49AM 25.5100 -111.1050 334° Northwest 447 514 38,000  Level FlightAware
12:49AM 25.5660 -111.1350 334° Northwest 447 514 38,000  Level FlightAware
12:50AM 25.6230 -111.1660 334° Northwest 447 514 38,000  Level FlightAware
12:50AM 25.6800 -111.1970 334° Northwest 447 514 38,000  Level FlightAware
12:51AM 25.7370 -111.2280 334° Northwest 447 514 38,000  Level FlightAware
12:52AM 25.7940 -111.2580 335° Northwest 447 514 38,000  Level FlightAware
12:52AM 25.8510 -111.2890 334° Northwest 447 514 38,000  Level FlightAware
12:53AM 25.9080 -111.3200 334° Northwest 447 514 38,000  Level FlightAware
12:53AM 25.9650 -111.3510 334° Northwest 447 514 38,000  Level FlightAware
12:54AM 26.0220 -111.3820 334° Northwest 447 514 38,000  Level FlightAware
12:55AM 26.0800 -111.4140 334° Northwest 447 514 38,000  Level FlightAware
12:57AM 26.4790 -111.7371 324° Northwest  Level Estimated
12:58AM 26.6983 -111.9158 324° Northwest  Level Estimated
12:59AM 26.9174 -112.0953 324° Northwest  Level Estimated
12:59AM 26.6770 -111.8220 324° Northwest 459 528 38,000  Level FlightAware
12:59AM 26.7510 -111.8740 328° Northwest 459 528 38,000  Level FlightAware
01:00AM 26.8060 -111.9120 328° Northwest 459 528 38,000  Level FlightAware
01:01AM 26.8820 -111.9630 329° Northwest 467 537 38,000  Level FlightAware
01:01AM 26.9490 -112.0090 329° Northwest 469 540 38,000  Level FlightAware
01:02AM 27.0240 -112.0600 329° Northwest 470 541 38,000  Level FlightAware
01:02AM 27.0840 -112.1020 328° Northwest 470 541 38,000  Level FlightAware
01:03AM 27.1350 -112.1470 322° Northwest 471 542 38,000  Level FlightAware
01:04AM 27.2010 -112.2230 314° West 470 541 38,000  Level FlightAware
01:04AM 27.2610 -112.2930 314° West 472 543 38,000  Level FlightAware
01:05AM 27.3170 -112.3570 315° West 469 540 38,000  Level FlightAware
01:05AM 27.3590 -112.4040 315° West 467 537 38,000  Level FlightAware
01:06AM 27.4200 -112.4720 315° West 466 536 38,000  Level FlightAware
01:07AM 27.4870 -112.5480 315° West 465 535 38,000  Level FlightAware
01:07AM 27.5430 -112.6110 315° West 465 535 38,000  Level FlightAware
01:08AM 27.5910 -112.6660 315° West 468 539 38,000  Level FlightAware
01:08AM 27.6420 -112.7270 313° West 471 542 38,000  Level FlightAware
01:09AM 27.7000 -112.7940 314° West 470 541 38,000  Level FlightAware
01:10AM 27.7480 -112.8490 315° West 470 541 38,000  Level FlightAware
01:10AM 27.8040 -112.9120 315° West 468 539 38,000  Level FlightAware
01:10AM 27.8310 -112.9420 316° Northwest 466 536 38,000  Level FlightAware
01:11AM 27.9030 -113.0230 315° West 463 533 38,000  Level FlightAware
01:12AM 27.9590 -113.0870 315° West 463 533 38,000  Level FlightAware
01:12AM 28.0100 -113.1460 314° West 462 532 38,000  Level FlightAware
01:13AM 28.0600 -113.2030 315° West 461 531 38,000  Level FlightAware
01:14AM 28.1150 -113.2660 315° West 461 531 38,000  Level FlightAware
01:14AM 28.1700 -113.3280 315° West 465 535 38,000  Level FlightAware
01:15AM 28.2250 -113.3880 316° Northwest 466 536 38,000  Level FlightAware
01:15AM 28.2740 -113.4400 317° Northwest 465 535 38,000  Level FlightAware
01:16AM 28.3430 -113.5150 316° Northwest 463 533 38,000  Level FlightAware
01:17AM 28.3990 -113.5760 316° Northwest 461 531 38,000  Level FlightAware
01:18AM 28.4890 -113.6640 319° Northwest 458 527 38,000  Level FlightAware
01:18AM 28.5410 -113.6970 331° Northwest 458 527 38,000  Level FlightAware
01:19AM 28.5980 -113.7320 332° Northwest 458 527 38,000  Level FlightAware
01:19AM 28.6540 -113.7680 331° Northwest 458 527 38,000  Level FlightAware
01:20AM 28.7110 -113.8040 331° Northwest 458 527 38,000  Level FlightAware
01:20AM 28.8230 -113.8200 353° North 458 527 38,000  Level FlightAware
01:21AM 28.8920 -113.8510 339° North 458 527 38,000  Level FlightAware
01:22AM 28.9700 -113.8870 338° Northwest 458 527 38,000  Level FlightAware
01:23AM 29.0660 -113.9330 337° Northwest 459 528 38,000  Level FlightAware
01:23AM 29.1260 -113.9620 337° Northwest 459 528 38,000  Level FlightAware
01:24AM 29.1860 -113.9910 337° Northwest 459 528 38,000  Level FlightAware
01:24AM 29.2460 -114.0200 337° Northwest 459 528 38,000  Level FlightAware
01:25AM 29.3060 -114.0490 337° Northwest 459 528 38,000  Level FlightAware
01:26AM 29.3670 -114.0790 337° Northwest 459 528 38,000  Level FlightAware
01:26AM 29.5110 -114.1390 340° North 463 533 38,000  Level FlightAware
01:27AM 29.5710 -114.1680 337° Northwest 463 533 38,000  Level FlightAware
01:28AM 29.6320 -114.1980 337° Northwest 463 533 38,000  Level FlightAware
01:28AM 29.6920 -114.2270 337° Northwest 463 533 38,000  Level FlightAware
01:29AM 29.7520 -114.2560 337° Northwest 463 533 38,000  Level FlightAware
01:29AM 29.8130 -114.2860 337° Northwest 463 533 38,000  Level FlightAware
01:30AM 29.8730 -114.3160 337° Northwest 463 533 38,000  Level FlightAware
01:31AM 29.9330 -114.3450 337° Northwest 463 533 38,000  Level FlightAware
01:31AM 29.9950 -114.3750 337° Northwest 463 533 38,000  Level FlightAware
01:32AM 30.0560 -114.4050 337° Northwest 463 533 38,000  Level FlightAware
01:32AM 30.1160 -114.4350 337° Northwest 463 533 38,000  Level FlightAware
01:33AM 30.1760 -114.4640 337° Northwest 463 533 38,000  Level FlightAware
01:34AM 30.2370 -114.4940 337° Northwest 463 533 38,000  Level FlightAware
01:34AM 30.2970 -114.5240 337° Northwest 463 533 38,000  Level FlightAware
01:35AM 30.3570 -114.5530 337° Northwest 463 533 38,000  Level FlightAware
01:35AM 30.4180 -114.5830 337° Northwest 463 533 38,000  Level FlightAware
01:38AM 30.8538 -115.0340 318° Northwest  Level Estimated
01:39AM 31.0560 -115.2451 318° Northwest  Level Estimated
01:40AM 31.2578 -115.4571 318° Northwest  Level Estimated
01:41AM 31.4593 -115.6701 318° Northwest  Level Estimated
01:42AM 31.6604 -115.8840 318° Northwest  Level Estimated
01:43AM 31.8612 -116.0987 318° Northwest  Level Estimated
01:44AM 32.0616 -116.3145 318° Northwest  Level Estimated
01:45AM 32.2616 -116.5312 318° Northwest  Level Estimated
01:45AM 31.7250 -115.1940 318° Northwest 470 541 38,000  Level FlightAware
01:45AM 31.7890 -115.2250 338° Northwest 468 539 38,000  Level FlightAware
01:46AM 31.8530 -115.2570 337° Northwest 468 539 38,000  Level FlightAware
01:46AM 31.9340 -115.2970 337° Northwest 466 536 38,000  Level FlightAware
01:47AM 32.0070 -115.3330 337° Northwest 467 537 38,000  Level FlightAware
01:48AM 32.0740 -115.3660 337° Northwest 468 539 38,000  Level FlightAware
01:48AM 32.1420 -115.3990 338° Northwest 468 539 38,000  Level FlightAware
01:49AM 32.2190 -115.4370 337° Northwest 469 540 38,000  Level FlightAware
01:49AM 32.2760 -115.4650 337° Northwest 473 544 38,000  Level FlightAware
01:50AM 32.3540 -115.5040 337° Northwest 476 548 38,000  Level FlightAware
01:50AM 32.4230 -115.5390 337° Northwest 478 550 38,000  Level FlightAware
01:51AM 32.4940 -115.5740 337° Northwest 480 552 38,000  Level FlightAware
01:52AM 32.5700 -115.6120 337° Northwest 483 556 38,000  Level FlightAware
01:52AM 32.6390 -115.6530 333° Northwest 479 551 38,000  Level FlightAware
01:53AM 32.6860 -115.7160 312° West 474 545 38,000  Level FlightAware
01:53AM 32.7290 -115.7980 302° West 474 545 38,000  Level FlightAware
01:54AM 32.7710 -115.8780 302° West 474 545 38,000 -300 Level FlightAware
01:55AM 32.8130 -115.9560 303° West 472 543 37,700 -1,620 Descending FlightAware
01:55AM 32.8500 -116.0270 302° West 479 551 36,200 -3,060 Descending FlightAware
01:56AM 32.8920 -116.1070 302° West 482 555 34,300 -3,300 Descending FlightAware
01:56AM 32.9360 -116.1890 303° West 480 552 32,200 -3,600 Descending FlightAware
01:57AM 32.9740 -116.2620 302° West 478 550 30,200 -3,540 Descending FlightAware
01:57AM 33.0160 -116.3450 301° West 477 549 28,200 -2,820 Descending FlightAware
01:58AM 33.0530 -116.4180 301° West 466 536 26,900 -2,340 Descending FlightAware
01:59AM 33.0950 -116.4990 302° West 449 517 25,500 -2,280 Descending FlightAware
01:59AM 33.1290 -116.5670 301° West 435 501 24,300 -1,320 Descending FlightAware
02:00AM 33.1480 -116.6480 286° West 396 456 24,000 -720 Descending FlightAware
02:00AM 33.1570 -116.7200 279° West 368 423 23,500 -1,440 Descending FlightAware
02:01AM 33.1660 -116.7920 279° West 367 422 22,300 -2,160 Descending FlightAware
02:02AM 33.1740 -116.8540 279° West 371 427 21,100 -2,700 Descending FlightAware
02:02AM 33.1830 -116.9330 278° West 384 442 19,200 -2,640 Descending FlightAware
02:03AM 33.1920 -117.0030 279° West 382 440 18,000 -2,280 Descending FlightAware
02:03AM 33.2000 -117.0720 278° West 378 435 16,700 -2,760 Descending FlightAware
02:04AM 33.2090 -117.1460 278° West 389 448 14,900 -2,640 Descending FlightAware
02:04AM 33.2170 -117.2190 277° West 380 437 13,700 -2,040 Descending FlightAware
02:05AM 33.2270 -117.2990 279° West 369 425 12,400 -1,440 Descending FlightAware
02:06AM 33.2340 -117.3630 277° West 341 392 12,000 -300 Descending FlightAware
02:06AM 33.2410 -117.4240 278° West 320 368 12,100 60 Climbing FlightAware
02:07AM 33.2440 -117.4850 273° West 318 366 12,100  Level FlightAware
02:07AM 33.2480 -117.5110 280° West 321 369 12,100  Level FlightAware
02:07AM 33.2580 -117.5320 300° West 325 374 12,100 -960 Level FlightAware
02:08AM 33.2970 -117.5750 317° Northwest 328 377 11,300 -960 Descending FlightAware
02:08AM 33.3380 -117.6150 321° Northwest 327 376 11,000 -600 Descending FlightAware
02:09AM 33.3790 -117.6550 321° Northwest 307 353 10,600 -720 Descending FlightAware
02:10AM 33.4130 -117.6890 320° Northwest 298 343 10,200 -780 Descending FlightAware
02:10AM 33.4420 -117.7170 321° Northwest 296 341 9,900 -720 Descending FlightAware
02:10AM 33.4530 -117.7290 318° Northwest 296 341 9,800 -600 Descending FlightAware
02:11AM 33.4750 -117.7500 321° Northwest 298 343 9,600 -660 Descending FlightAware
02:11AM 33.4910 -117.7660 320° Northwest 298 343 9,400 -660 Descending FlightAware
02:11AM 33.5140 -117.7890 320° Northwest 296 341 9,200 -600 Descending FlightAware
02:11AM 33.5250 -117.7990 323° Northwest 296 341 9,100 -720 Descending FlightAware
02:12AM 33.5500 -117.8240 320° Northwest 295 339 8,800 -720 Descending FlightAware
02:12AM 33.5730 -117.8460 321° Northwest 295 339 8,600 -720 Descending FlightAware
02:12AM 33.5900 -117.8630 320° Northwest 295 339 8,400 -720 Descending FlightAware
02:13AM 33.6080 -117.8810 320° Northwest 294 338 8,200 -600 Descending FlightAware
02:13AM 33.6240 -117.8970 320° Northwest 293 337 8,100 -660 Descending FlightAware
02:13AM 33.6500 -117.9220 321° Northwest 291 335 7,800 -720 Descending FlightAware
02:14AM 33.6700 -117.9420 320° Northwest 289 333 7,600 -600 Descending FlightAware
02:14AM 33.6820 -117.9550 318° Northwest 288 331 7,500 -660 Descending FlightAware
02:14AM 33.7060 -117.9790 320° Northwest 288 331 7,200 -720 Descending FlightAware
02:15AM 33.7270 -117.9990 322° Northwest 287 330 7,000 -360 Descending FlightAware
02:15AM 33.7460 -118.0180 320° Northwest 276 318 7,000  Level FlightAware
02:15AM 33.7630 -118.0350 320° Northwest 269 310 7,000  Level FlightAware
02:15AM 33.7840 -118.0510 328° Northwest 259 298 7,000  Level FlightAware
02:16AM 33.7880 -118.0520 348° North 257 296 7,000  Level FlightAware
02:16AM 33.8060 -118.0560 350° North 254 292 7,000 -360 Level FlightAware
02:16AM 33.8290 -118.0590 354° North 247 284 6,800 -840 Descending FlightAware
02:16AM 33.8470 -118.0620 352° North 241 277 6,500 -1,380 Descending FlightAware
02:17AM 33.8690 -118.0660 351° North 241 277 6,000 -1,440 Descending FlightAware
02:17AM 33.8910 -118.0690 354° North 238 274 5,600 -1,140 Descending FlightAware
02:17AM 33.9100 -118.0720 353° North 231 266 5,300 -1,020 Descending FlightAware
02:18AM 33.9300 -118.0780 346° North 228 262 5,000 -1,080 Descending FlightAware
02:18AM 33.9370 -118.0850 320° Northwest 224 258 4,800 -960 Descending FlightAware
02:18AM 33.9400 -118.0900 306° West 221 254 4,800 -600 Level FlightAware
02:18AM 33.9420 -118.0970 289° West 216 249 4,700 -780 Descending FlightAware
02:18AM 33.9450 -118.1070 290° West 209 241 4,600 -600 Descending FlightAware
02:18AM 33.9480 -118.1210 284° West 200 230 4,500 -540 Descending FlightAware
02:19AM 33.9530 -118.1440 285° West 185 213 4,300 -840 Descending FlightAware
02:19AM 33.9570 -118.1640 284° West 184 212 3,900 -1,320 Descending FlightAware
02:19AM 33.9580 -118.1730 278° West 188 216 3,700 -1,560 Descending FlightAware
02:20AM 33.9570 -118.1910 266° West 197 227 3,100 -1,440 Descending FlightAware
02:20AM 33.9550 -118.2120 263° West 190 219 2,800 -960 Descending FlightAware
02:20AM 33.9520 -118.2420 263° West 169 194 2,400 -900 Descending FlightAware
02:21AM 33.9500 -118.2560 260° West 160 184 2,100 -840 Descending FlightAware
02:21AM 33.9470 -118.2850 263° West 153 176 1,700 -780 Descending FlightAware
02:21AM 33.9460 -118.2990 265° West 149 171 1,500 -840 Descending FlightAware
02:22AM 33.9440 -118.3160 262° West 149 171 1,200 -840 Descending FlightAware
02:22AM 33.9430 -118.3320 266° West 153 176 1,000 -780 Descending FlightAware
02:22AM 33.9410 -118.3480 261° West 156 180 700 -900 Descending FlightAware
02:23AM 33.9390 -118.3680 263° West 149 171 400 -840 Descending FlightAware
02:23AM 33.9380 -118.3800 264° West 147 169 200 -300 Descending FlightAware
02:23AM 33.9360 -118.3970 262° West 147 169 200  Level FlightAware
02:31AM 33.9333 -118.4000 296° West  Level FlightAware Approximate
02:32AM 33.9425 -118.4081 296° West  Level Estimated